Time;durP1;ratioP1;P1;durP2;ratioP2;P2;SDS_P1;SDS_P2;PMS_P1;PMS_P2;Temp;Humidity;BMP_temperature;BMP_pressure;BME280_temperature;BME280_humidity;BME280_pressure;Samples;Min_cycle;Max_cycle;Signal;HPM_P1;HPM_P2
2022/03/23 00:01:10;;;;;;;;;;;;;;;17.35;36.39;102023.69;4978419;28;799;-46
2022/03/23 00:03:37;;;;;;;;;;;;;;;17.56;36.35;102022.09;4984390;28;1914;-50
2022/03/23 00:06:02;;;;;;;;;;;;;;;18.39;34.69;102029.69;4996716;28;1109;-49
2022/03/23 00:08:28;;;;;;;;;;;;;;;18.69;33.84;102028.41;4996442;28;802;-45
2022/03/23 00:10:53;;;;;;;;;;;;;;;18.89;33.54;102024.25;4997343;28;875;-50
2022/03/23 00:13:19;;;;;;;;;;;;;;;18.88;33.75;102025.34;4996959;28;866;-47
2022/03/23 00:15:45;;;;;;;;;;;;;;;18.92;33.47;102023.72;4978896;28;1705;-42
2022/03/23 00:18:11;;;;;;;;;;;;;;;18.56;34.06;102012.25;4983091;28;837;-45
2022/03/23 00:20:37;;;;;;;;;;;;;;;18.41;34.56;102019.25;4996884;28;866;-49
2022/03/23 00:23:02;;;;;;;;;;;;;;;18.44;34.39;102018.75;4992862;28;1918;-50
2022/03/23 00:25:27;;;;;;;;;;;;;;;18.31;34.72;102019.09;4978099;28;995;-48
2022/03/23 00:27:53;;;;;;;;;;;;;;;18.27;34.83;102010.53;4977997;28;960;-46
2022/03/23 00:30:18;;;;;;;;;;;;;;;18.36;34.61;102027.44;4987879;28;819;-50
2022/03/23 00:32:44;;;;;;;;;;;;;;;18.23;34.62;102014.88;4993637;28;928;-49
2022/03/23 00:35:09;;;;;;;;;;;;;;;18.15;35.11;102011.75;4971484;28;846;-47
2022/03/23 00:37:35;;;;;;;;;;;;;;;18.12;35.07;102016.66;4977798;28;807;-49
2022/03/23 00:40:01;;;;;;;;;;;;;;;18.34;34.54;102004.84;4978084;28;763;-45
2022/03/23 00:42:26;;;;;;;;;;;;;;;18.59;34.30;102015.34;4982614;28;1914;-46
2022/03/23 00:44:51;;;;;;;;;;;;;;;18.47;34.26;102012.72;4996405;28;804;-48
2022/03/23 00:47:17;;;;;;;;;;;;;;;18.43;34.34;102017.06;4996512;28;814;-47
2022/03/23 00:49:45;;;;;;;;;;;;;;;18.40;34.46;102016.75;4976522;28;1023;-48
2022/03/23 00:52:11;;;;;;;;;;;;;;;18.56;34.38;102009.50;4996649;28;829;-50
2022/03/23 00:54:37;;;;;;;;;;;;;;;18.81;33.72;102012.53;4978564;28;1597;-50
2022/03/23 00:57:02;;;;;;;;;;;;;;;19.07;33.24;102012.00;5000708;28;964;-50
2022/03/23 00:59:28;;;;;;;;;;;;;;;19.05;33.35;101998.50;4982354;28;1164;-46
2022/03/23 01:01:53;;;;;;;;;;;;;;;19.13;33.03;101991.69;4982018;28;1910;-45
2022/03/23 01:04:19;;;;;;;;;;;;;;;18.73;33.71;101996.50;4985079;28;984;-46
2022/03/23 01:06:44;;;;;;;;;;;;;;;18.48;34.43;101994.25;4997180;28;960;-50
2022/03/23 01:09:10;;;;;;;;;;;;;;;18.16;35.11;102002.38;4996996;28;755;-44
2022/03/23 01:11:37;;;;;;;;;;;;;;;17.89;35.54;102005.81;4968843;28;1476;-46
2022/03/23 01:14:03;;;;;;;;;;;;;;;17.82;35.68;101999.66;5000107;28;802;-47
2022/03/23 01:16:28;;;;;;;;;;;;;;;17.76;35.92;101996.00;4982289;28;975;-46
2022/03/23 01:18:53;;;;;;;;;;;;;;;17.88;35.57;101988.50;4995807;28;826;-48
2022/03/23 01:21:19;;;;;;;;;;;;;;;18.27;34.87;101996.78;4969856;28;1333;-48
2022/03/23 01:23:44;;;;;;;;;;;;;;;18.56;34.15;101990.22;4982824;28;1918;-48
2022/03/23 01:26:10;;;;;;;;;;;;;;;18.83;33.96;101986.66;4989218;28;1457;-47
2022/03/23 01:28:35;;;;;;;;;;;;;;;18.93;33.47;101984.88;4958547;28;1085;-48
2022/03/23 01:31:01;;;;;;;;;;;;;;;19.00;33.56;101981.91;4984698;28;1403;-50
2022/03/23 01:33:27;;;;;;;;;;;;;;;19.17;33.31;101991.97;4964253;28;1088;-49
2022/03/23 01:35:52;;;;;;;;;;;;;;;19.11;33.10;101986.44;4963550;28;1246;-48
2022/03/23 01:38:18;;;;;;;;;;;;;;;19.05;33.26;101992.97;4963205;28;1369;-47
2022/03/23 01:40:46;;;;;;;;;;;;;;;18.69;33.90;101986.22;4981014;28;809;-48
2022/03/23 01:43:15;;;;;;;;;;;;;;;18.30;34.52;101987.16;5000228;28;1909;-47
2022/03/23 01:45:41;;;;;;;;;;;;;;;18.09;34.97;101983.28;4976577;28;1318;-46
2022/03/23 01:48:06;;;;;;;;;;;;;;;17.82;35.48;101988.66;4998736;28;897;-45
2022/03/23 01:50:32;;;;;;;;;;;;;;;17.74;35.27;101984.41;4999379;28;838;-47
2022/03/23 01:52:57;;;;;;;;;;;;;;;17.58;35.92;101984.16;4999381;28;839;-50
2022/03/23 01:55:23;;;;;;;;;;;;;;;18.21;34.85;101988.69;4999477;28;763;-49
2022/03/23 01:57:51;;;;;;;;;;;;;;;18.66;34.26;101984.00;4991049;28;1025;-48
2022/03/23 02:00:16;;;;;;;;;;;;;;;18.48;34.19;101986.00;4995671;28;744;-48
2022/03/23 02:02:46;;;;;;;;;;;;;;;18.24;34.91;101982.66;4978270;28;1969;-45
2022/03/23 02:05:14;;;;;;;;;;;;;;;17.90;35.37;101985.50;4979356;28;1340;-45
2022/03/23 02:07:46;;;;;;;;;;;;;;;17.73;35.72;101983.59;4981709;28;1354;-47
2022/03/23 02:10:12;;;;;;;;;;;;;;;17.67;35.84;101986.50;4963405;28;1925;-47
2022/03/23 02:12:50;;;;;;;;;;;;;;;17.84;35.59;101986.47;4957219;28;1419;-47
2022/03/23 02:15:16;;;;;;;;;;;;;;;18.22;34.84;101982.09;4980955;28;1121;-48
2022/03/23 02:17:42;;;;;;;;;;;;;;;18.45;34.52;101992.03;4962582;28;947;-44
2022/03/23 02:20:08;;;;;;;;;;;;;;;18.70;33.83;101994.25;4980959;28;1111;-46
2022/03/23 02:22:33;;;;;;;;;;;;;;;18.81;33.63;101996.00;4981419;28;1902;-46
2022/03/23 02:24:59;;;;;;;;;;;;;;;18.94;33.69;101993.97;4993351;28;1165;-50
2022/03/23 02:27:25;;;;;;;;;;;;;;;19.04;33.21;101993.25;4998787;28;814;-42
2022/03/23 02:29:50;;;;;;;;;;;;;;;19.26;33.03;101995.94;4981370;28;767;-44
2022/03/23 02:32:16;;;;;;;;;;;;;;;19.12;33.02;102004.63;4999163;28;840;-44
2022/03/23 02:34:42;;;;;;;;;;;;;;;18.76;33.86;102004.25;4997219;28;1042;-48
2022/03/23 02:37:08;;;;;;;;;;;;;;;18.31;34.34;102008.09;4994224;28;842;-47
2022/03/23 02:39:34;;;;;;;;;;;;;;;18.07;34.84;102002.81;4998829;28;782;-48
2022/03/23 02:41:59;;;;;;;;;;;;;;;17.66;35.71;102013.19;4998524;28;1902;-50
2022/03/23 02:44:29;;;;;;;;;;;;;;;17.60;36.19;102003.19;4998311;28;846;-47
2022/03/23 02:46:55;;;;;;;;;;;;;;;18.39;34.77;102009.56;4998360;28;803;-48
2022/03/23 02:49:20;;;;;;;;;;;;;;;18.92;33.77;102008.03;4981521;28;829;-45
2022/03/23 02:51:46;;;;;;;;;;;;;;;18.97;33.34;102001.72;4998093;28;853;-48
2022/03/23 03:02:26;;;;;;;;;;;;;;;18.55;34.04;101986.66;4987275;28;1898;-49
2022/03/23 03:04:52;;;;;;;;;;;;;;;18.51;34.36;101993.75;4994462;28;853;-47
2022/03/23 03:07:17;;;;;;;;;;;;;;;18.61;33.98;101982.03;4997581;28;834;-43
2022/03/23 03:09:43;;;;;;;;;;;;;;;18.55;34.16;101988.56;4998398;28;1032;-44
2022/03/23 03:12:10;;;;;;;;;;;;;;;18.40;34.60;101995.56;4998310;28;762;-44
2022/03/23 03:14:36;;;;;;;;;;;;;;;18.24;34.82;102000.03;4986875;28;824;-48
2022/03/23 03:17:01;;;;;;;;;;;;;;;18.08;35.13;101998.97;4997990;28;887;-45
2022/03/23 03:19:26;;;;;;;;;;;;;;;18.04;35.11;101997.81;4995035;28;1022;-48
2022/03/23 03:21:53;;;;;;;;;;;;;;;18.04;35.29;101995.06;4997789;28;1902;-46
2022/03/23 03:24:20;;;;;;;;;;;;;;;18.69;34.07;101994.50;4997739;28;1203;-46
2022/03/23 03:26:46;;;;;;;;;;;;;;;19.02;33.60;102000.97;4993452;28;890;-45
2022/03/23 03:29:12;;;;;;;;;;;;;;;19.14;33.11;102009.91;4997433;28;834;-48
2022/03/23 03:31:37;;;;;;;;;;;;;;;19.04;33.38;101996.00;4997675;28;1375;-48
2022/03/23 03:34:02;;;;;;;;;;;;;;;18.77;33.70;102010.56;4985251;28;952;-50
2022/03/23 03:36:28;;;;;;;;;;;;;;;18.51;34.26;102001.19;4996994;28;955;-49
2022/03/23 03:38:54;;;;;;;;;;;;;;;18.19;34.55;101996.34;4997704;28;836;-44
2022/03/23 03:41:20;;;;;;;;;;;;;;;17.88;35.20;101990.41;4986595;28;886;-45
2022/03/23 03:43:45;;;;;;;;;;;;;;;17.67;35.60;101998.34;4997024;28;1918;-44
2022/03/23 03:46:11;;;;;;;;;;;;;;;17.68;35.82;101989.00;4997848;28;824;-47
2022/03/23 03:48:37;;;;;;;;;;;;;;;18.18;35.09;102009.31;4991665;28;861;-50
2022/03/23 03:51:03;;;;;;;;;;;;;;;18.85;33.75;101990.81;4996876;28;857;-46
2022/03/23 03:53:28;;;;;;;;;;;;;;;18.86;33.48;101999.91;4995086;28;874;-46
2022/03/23 03:55:54;;;;;;;;;;;;;;;18.89;33.44;101994.75;4997108;28;831;-49
2022/03/23 03:58:20;;;;;;;;;;;;;;;19.01;33.26;101999.28;4987567;28;1050;-49
2022/03/23 04:00:45;;;;;;;;;;;;;;;18.95;33.57;102001.16;4991691;28;1164;-46
2022/03/23 04:03:12;;;;;;;;;;;;;;;18.66;33.81;102000.53;4974627;28;1910;-50
2022/03/23 04:05:37;;;;;;;;;;;;;;;18.32;34.53;101996.00;4991556;28;932;-48
2022/03/23 04:08:03;;;;;;;;;;;;;;;18.28;34.61;101997.59;4997252;28;830;-48
2022/03/23 04:10:28;;;;;;;;;;;;;;;18.02;35.26;101993.66;4997184;28;802;-45
2022/03/23 04:12:54;;;;;;;;;;;;;;;18.06;34.98;102006.69;4996545;28;815;-45
2022/03/23 04:15:20;;;;;;;;;;;;;;;17.94;35.16;102003.19;4997113;28;826;-49
2022/03/23 04:17:46;;;;;;;;;;;;;;;17.83;35.37;101995.84;4993750;28;916;-49
2022/03/23 04:20:12;;;;;;;;;;;;;;;17.89;35.38;102005.81;4996222;28;870;-46
2022/03/23 04:22:40;;;;;;;;;;;;;;;17.95;35.36;101996.59;4996803;28;2007;-47
2022/03/23 04:25:07;;;;;;;;;;;;;;;18.13;34.98;101999.06;4996505;28;1053;-48
2022/03/23 04:27:33;;;;;;;;;;;;;;;18.34;34.57;101995.72;4995928;28;806;-48
2022/03/23 04:29:59;;;;;;;;;;;;;;;18.59;34.14;102000.72;4997194;28;966;-45
2022/03/23 04:32:25;;;;;;;;;;;;;;;18.75;33.88;102002.56;4991575;28;842;-45
2022/03/23 04:34:50;;;;;;;;;;;;;;;18.73;33.92;101993.75;4990576;28;1069;-45
2022/03/23 04:37:15;;;;;;;;;;;;;;;18.92;33.29;101994.22;4996848;28;758;-47
2022/03/23 04:39:41;;;;;;;;;;;;;;;19.07;33.03;101989.97;4971471;28;786;-45
2022/03/23 04:42:06;;;;;;;;;;;;;;;19.13;33.00;101991.69;4977889;28;1983;-49
2022/03/23 04:44:32;;;;;;;;;;;;;;;19.15;32.89;101989.50;4989122;28;830;-45
2022/03/23 04:46:57;;;;;;;;;;;;;;;18.79;33.43;101989.94;4996332;28;921;-43
2022/03/23 04:49:23;;;;;;;;;;;;;;;18.53;34.08;101983.31;4987003;28;854;-45
2022/03/23 04:51:48;;;;;;;;;;;;;;;18.15;34.45;101986.97;4990832;28;1124;-48
2022/03/23 04:54:14;;;;;;;;;;;;;;;17.85;35.13;101994.50;4977654;28;846;-49
2022/03/23 04:56:39;;;;;;;;;;;;;;;17.67;35.49;102008.50;4981615;28;826;-46
2022/03/23 04:59:05;;;;;;;;;;;;;;;17.64;35.57;101998.84;4981888;28;963;-45
2022/03/23 05:01:31;;;;;;;;;;;;;;;17.54;35.73;101994.00;4977432;28;850;-48
2022/03/23 05:03:57;;;;;;;;;;;;;;;18.40;34.25;101997.47;4984163;28;1907;-49
2022/03/23 05:06:23;;;;;;;;;;;;;;;18.71;33.73;101993.16;4995632;28;810;-45
2022/03/23 05:08:48;;;;;;;;;;;;;;;18.68;33.75;101993.69;4994884;28;853;-48
2022/03/23 05:11:14;;;;;;;;;;;;;;;18.64;33.83;101996.09;4995970;28;766;-44
2022/03/23 05:13:40;;;;;;;;;;;;;;;18.28;34.31;101986.56;4996540;28;817;-46
2022/03/23 05:16:07;;;;;;;;;;;;;;;18.04;34.78;101992.31;4996143;28;857;-47
2022/03/23 05:18:33;;;;;;;;;;;;;;;18.05;34.96;101993.16;4994821;28;959;-46
2022/03/23 05:20:58;;;;;;;;;;;;;;;17.95;35.16;101999.34;4996241;28;796;-46
2022/03/23 05:23:24;;;;;;;;;;;;;;;18.09;34.86;101995.16;4987049;28;1985;-47
2022/03/23 05:25:49;;;;;;;;;;;;;;;18.00;35.09;101995.84;4995939;28;1136;-47
2022/03/23 05:28:15;;;;;;;;;;;;;;;17.94;34.87;101998.50;4996111;28;794;-47
2022/03/23 05:30:40;;;;;;;;;;;;;;;17.95;34.94;102002.94;4996434;28;881;-45
2022/03/23 05:33:06;;;;;;;;;;;;;;;18.07;34.83;102002.81;4990120;28;839;-50
2022/03/23 05:35:31;;;;;;;;;;;;;;;18.39;34.03;101993.06;4989755;28;1028;-49
2022/03/23 05:37:57;;;;;;;;;;;;;;;18.69;33.62;101998.09;4996735;28;837;-48
2022/03/23 05:40:23;;;;;;;;;;;;;;;18.88;33.18;101992.28;4999622;28;830;-45
2022/03/23 05:42:49;;;;;;;;;;;;;;;18.96;32.98;102002.84;4999627;28;1975;-47
2022/03/23 05:45:15;;;;;;;;;;;;;;;19.05;33.05;102016.97;4999610;28;794;-42
2022/03/23 05:47:43;;;;;;;;;;;;;;;19.19;32.45;102012.69;4992213;28;771;-48
2022/03/23 05:50:09;;;;;;;;;;;;;;;17.73;35.13;102013.84;4998640;28;831;-46
2022/03/23 05:52:35;;;;;;;;;;;;;;;17.06;36.63;102007.22;4999599;28;873;-49
2022/03/23 05:55:01;;;;;;;;;;;;;;;17.44;35.80;102013.91;4999489;28;901;-43
2022/03/23 05:57:27;;;;;;;;;;;;;;;17.57;35.47;102006.44;4997053;28;982;-44
2022/03/23 05:59:52;;;;;;;;;;;;;;;17.58;35.64;102011.69;4984860;28;960;-49
2022/03/23 06:02:18;;;;;;;;;;;;;;;18.11;34.69;102009.47;4999356;28;1977;-43
2022/03/23 06:04:44;;;;;;;;;;;;;;;18.45;34.16;102020.41;4997027;28;1020;-46
2022/03/23 06:07:09;;;;;;;;;;;;;;;18.59;33.79;102009.00;4999208;28;866;-45
2022/03/23 06:09:34;;;;;;;;;;;;;;;18.77;33.33;102011.41;4999143;28;831;-48
2022/03/23 06:12:04;;;;;;;;;;;;;;;18.85;33.29;102006.53;4997528;28;894;-48
2022/03/23 06:14:29;;;;;;;;;;;;;;;19.07;32.77;102015.63;4993909;28;759;-47
2022/03/23 06:16:55;;;;;;;;;;;;;;;19.06;32.78;102022.22;4999360;28;804;-45
2022/03/23 06:19:20;;;;;;;;;;;;;;;19.20;32.59;102024.56;4992273;28;905;-45
2022/03/23 06:21:46;;;;;;;;;;;;;;;18.65;33.42;102016.25;4999241;28;811;-49
2022/03/23 06:24:11;;;;;;;;;;;;;;;18.37;33.90;102020.00;4998509;28;1985;-43
2022/03/23 06:26:36;;;;;;;;;;;;;;;18.26;34.20;102019.06;4997390;28;1176;-47
2022/03/23 06:29:02;;;;;;;;;;;;;;;17.99;34.65;102010.69;4999228;28;908;-48
2022/03/23 06:31:27;;;;;;;;;;;;;;;17.62;35.21;102015.59;4998552;28;853;-47
2022/03/23 06:33:53;;;;;;;;;;;;;;;17.63;35.21;102010.94;4993830;28;916;-46
2022/03/23 06:36:18;;;;;;;;;;;;;;;17.83;35.21;102018.69;4998642;28;878;-44
2022/03/23 06:38:44;;;;;;;;;;;;;;;18.39;33.96;102015.91;4991497;28;861;-48
2022/03/23 06:41:10;;;;;;;;;;;;;;;18.64;33.63;102017.31;4998521;28;894;-49
2022/03/23 06:43:35;;;;;;;;;;;;;;;18.71;33.43;102012.44;4998411;28;1902;-47
2022/03/23 06:46:01;;;;;;;;;;;;;;;18.63;33.78;102005.47;4999141;28;779;-50
2022/03/23 06:48:27;;;;;;;;;;;;;;;18.61;33.81;102017.84;4995352;28;841;-47
2022/03/23 06:50:52;;;;;;;;;;;;;;;18.60;33.88;102005.16;4991157;28;881;-48
2022/03/23 06:53:18;;;;;;;;;;;;;;;18.57;33.61;102005.66;4979496;28;843;-44
2022/03/23 06:55:43;;;;;;;;;;;;;;;18.51;33.96;102013.03;4979531;28;799;-49
2022/03/23 06:58:09;;;;;;;;;;;;;;;18.59;33.72;102004.34;4984186;28;1061;-48
2022/03/23 07:00:34;;;;;;;;;;;;;;;18.48;33.76;101991.50;4998081;28;806;-47
2022/03/23 07:02:59;;;;;;;;;;;;;;;18.40;33.75;102001.06;4994900;28;1903;-47
2022/03/23 07:05:25;;;;;;;;;;;;;;;18.19;34.46;101985.34;4994139;28;790;-49
2022/03/23 07:10:34;;;;;;;;;;;;;;;18.06;34.59;101995.66;4997609;28;850;-51
2022/03/23 07:13:00;;;;;;;;;;;;;;;17.95;34.56;101985.59;4997824;28;944;-44
2022/03/23 07:15:25;;;;;;;;;;;;;;;18.03;34.49;101976.88;4998167;28;821;-45
2022/03/23 07:17:51;;;;;;;;;;;;;;;18.00;34.54;101980.16;4976544;28;794;-49
2022/03/23 07:20:16;;;;;;;;;;;;;;;18.45;33.85;101997.53;4995421;28;925;-48
2022/03/23 07:22:42;;;;;;;;;;;;;;;18.96;32.62;101967.00;4997861;28;1898;-42
2022/03/23 07:25:07;;;;;;;;;;;;;;;19.35;31.93;101986.09;4997339;28;1133;-48
2022/03/23 07:27:33;;;;;;;;;;;;;;;19.26;32.01;101982.97;4998084;28;869;-48
2022/03/23 07:29:58;;;;;;;;;;;;;;;18.28;33.58;102000.34;4991848;28;771;-50
2022/03/23 07:32:24;;;;;;;;;;;;;;;17.36;35.42;101992.38;4996474;28;849;-50
2022/03/23 07:34:49;;;;;;;;;;;;;;;16.93;36.42;101997.38;4994342;28;873;-48
2022/03/23 07:37:15;;;;;;;;;;;;;;;17.35;35.51;101998.09;4997716;28;892;-48
2022/03/23 07:39:41;;;;;;;;;;;;;;;17.78;34.58;101989.19;4997850;28;766;-49
2022/03/23 07:42:06;;;;;;;;;;;;;;;18.33;33.50;101996.81;4985460;28;1968;-47
2022/03/23 07:44:34;;;;;;;;;;;;;;;18.61;33.14;101987.53;4979714;28;815;-44
2022/03/23 07:47:00;;;;;;;;;;;;;;;18.95;32.36;101998.41;4996831;28;775;-45
2022/03/23 07:49:26;;;;;;;;;;;;;;;19.11;32.12;101983.69;4977227;28;1152;-47
2022/03/23 07:51:51;;;;;;;;;;;;;;;19.20;31.84;101980.44;4997389;28;768;-44
2022/03/23 07:54:17;;;;;;;;;;;;;;;19.03;32.23;101986.06;4991592;28;782;-50
2022/03/23 07:56:42;;;;;;;;;;;;;;;18.49;32.89;101982.16;4997113;28;994;-48
2022/03/23 07:59:08;;;;;;;;;;;;;;;18.15;33.70;101982.28;4981869;28;1116;-47
2022/03/23 08:01:33;;;;;;;;;;;;;;;18.01;34.03;101992.00;4978621;28;847;-51
2022/03/23 08:03:59;;;;;;;;;;;;;;;17.84;33.96;101992.84;4978376;28;1976;-47
2022/03/23 08:06:25;;;;;;;;;;;;;;;17.95;34.12;101993.84;4996915;28;770;-46
2022/03/23 08:08:51;;;;;;;;;;;;;;;17.97;33.87;101985.34;4984819;28;834;-50
2022/03/23 08:11:16;;;;;;;;;;;;;;;18.02;33.91;101982.66;4997066;28;849;-49
2022/03/23 08:13:42;;;;;;;;;;;;;;;18.36;33.22;101972.38;4985293;28;1038;-42
2022/03/23 08:16:07;;;;;;;;;;;;;;;18.45;32.81;101969.97;4977750;28;893;-46
2022/03/23 08:18:33;;;;;;;;;;;;;;;18.71;32.52;101973.06;4974047;28;952;-48
2022/03/23 08:21:00;;;;;;;;;;;;;;;18.73;32.36;101993.75;4986410;28;1263;-47
2022/03/23 08:23:25;;;;;;;;;;;;;;;18.92;32.07;101983.22;4975821;28;1902;-47
2022/03/23 08:25:51;;;;;;;;;;;;;;;18.90;32.12;101963.38;4977676;28;1098;-49
2022/03/23 08:28:17;;;;;;;;;;;;;;;18.97;31.75;101976.91;4978205;28;858;-50
2022/03/23 08:30:43;;;;;;;;;;;;;;;19.05;31.91;101970.94;4977949;28;780;-47
2022/03/23 08:33:08;;;;;;;;;;;;;;;18.98;31.72;101965.66;4980900;28;808;-50
2022/03/23 08:35:34;;;;;;;;;;;;;;;18.99;31.77;101960.97;4996808;28;825;-48
2022/03/23 08:37:59;;;;;;;;;;;;;;;18.60;32.28;101966.59;4996535;28;846;-46
2022/03/23 08:40:25;;;;;;;;;;;;;;;18.23;33.21;101969.97;4996053;28;794;-45
2022/03/23 08:42:50;;;;;;;;;;;;;;;18.00;33.42;101977.41;4996279;28;1902;-49
2022/03/23 08:45:16;;;;;;;;;;;;;;;17.72;34.05;101973.66;4993961;28;862;-47
2022/03/23 08:47:41;;;;;;;;;;;;;;;17.69;33.92;101965.91;4994045;28;909;-50
2022/03/23 08:50:07;;;;;;;;;;;;;;;18.11;33.20;101968.19;4996304;28;923;-48
2022/03/23 08:52:34;;;;;;;;;;;;;;;18.77;31.94;101958.22;4996751;28;767;-46
2022/03/23 08:55:00;;;;;;;;;;;;;;;19.18;31.38;101966.94;4996326;28;827;-48
2022/03/23 08:57:25;;;;;;;;;;;;;;;18.88;31.73;101967.47;4994824;28;1065;-45
2022/03/23 08:59:50;;;;;;;;;;;;;;;18.57;32.31;101945.06;4984946;28;904;-48
2022/03/23 09:02:16;;;;;;;;;;;;;;;18.34;32.72;101957.19;4995270;28;1883;-44
2022/03/23 09:04:41;;;;;;;;;;;;;;;17.85;33.50;101922.97;4984722;28;972;-44
2022/03/23 09:07:07;;;;;;;;;;;;;;;17.71;33.37;101949.16;4996753;28;862;-43
2022/03/23 09:09:32;;;;;;;;;;;;;;;17.65;33.68;101951.00;4996019;28;853;-50
2022/03/23 09:11:58;;;;;;;;;;;;;;;18.55;32.07;101948.09;4991802;28;831;-47
2022/03/23 09:14:23;;;;;;;;;;;;;;;18.80;31.77;101955.78;4998707;28;862;-48
2022/03/23 09:16:49;;;;;;;;;;;;;;;18.52;31.93;101943.06;4981363;28;985;-51
2022/03/23 09:19:19;;;;;;;;;;;;;;;18.13;32.59;101952.25;4996016;28;944;-43
2022/03/23 09:21:46;;;;;;;;;;;;;;;18.10;32.61;101936.25;5000115;28;842;-50
2022/03/23 09:24:11;;;;;;;;;;;;;;;17.58;33.69;101939.34;4988410;28;1914;-49
2022/03/23 09:26:38;;;;;;;;;;;;;;;17.86;33.41;101932.03;5000054;28;1173;-48
2022/03/23 09:29:04;;;;;;;;;;;;;;;18.74;31.54;101928.44;4988633;28;1105;-50
2022/03/23 09:31:30;;;;;;;;;;;;;;;18.87;31.34;101932.69;4980746;28;904;-46
2022/03/23 09:33:55;;;;;;;;;;;;;;;18.78;31.32;101932.34;4989020;28;924;-45
2022/03/23 09:39:04;;;;;;;;;;;;;;;18.51;32.01;101932.31;4999396;28;974;-49
2022/03/23 09:41:32;;;;;;;;;;;;;;;18.45;32.13;101935.03;4999561;28;763;-48
2022/03/23 09:43:58;;;;;;;;;;;;;;;18.44;32.08;101936.13;4999751;28;1922;-47
2022/03/23 09:46:23;;;;;;;;;;;;;;;18.36;32.10;101914.53;4999037;28;911;-47
2022/03/23 09:48:49;;;;;;;;;;;;;;;18.19;32.38;101922.03;4991729;28;876;-47
2022/03/23 09:51:15;;;;;;;;;;;;;;;18.17;32.59;101915.97;4996489;28;900;-47
2022/03/23 09:53:40;;;;;;;;;;;;;;;18.10;32.58;101913.41;4982371;28;784;-51
2022/03/23 09:56:06;;;;;;;;;;;;;;;18.16;32.64;101914.28;4981919;28;1052;-48
2022/03/23 09:58:31;;;;;;;;;;;;;;;18.16;32.32;101909.63;4971062;28;1119;-51
2022/03/23 10:00:57;;;;;;;;;;;;;;;18.15;32.46;101920.91;4980619;28;851;-45
2022/03/23 10:03:38;;;;;;;;;;;;;;;18.07;32.36;101909.22;4991046;28;1980;-49
2022/03/23 10:06:21;;;;;;;;;;;;;;;18.19;32.48;101922.03;4999209;28;799;-45
2022/03/23 10:09:05;;;;;;;;;;;;;;;18.10;32.45;101921.66;4998874;28;842;-47
2022/03/23 10:11:37;;;;;;;;;;;;;;;18.32;31.82;101926.34;4999564;28;779;-45
2022/03/23 10:14:21;;;;;;;;;;;;;;;18.27;31.78;101914.16;4995498;28;818;-47
2022/03/23 10:17:05;;;;;;;;;;;;;;;18.12;31.91;101895.53;4997526;28;863;-47
2022/03/23 10:19:30;;;;;;;;;;;;;;;18.34;31.80;101908.47;4995591;28;944;-44
2022/03/23 10:22:06;;;;;;;;;;;;;;;18.33;31.62;101915.06;4998658;28;858;-50
2022/03/23 10:24:32;;;;;;;;;;;;;;;18.18;31.81;101903.88;4998092;28;989;-47
2022/03/23 10:26:58;;;;;;;;;;;;;;;18.24;31.93;101911.09;4996224;28;771;-46
2022/03/23 10:29:24;;;;;;;;;;;;;;;18.30;31.45;101907.31;4998667;28;806;-44
2022/03/23 10:32:08;;;;;;;;;;;;;;;18.18;31.79;101906.63;4999115;28;755;-43
2022/03/23 10:34:46;;;;;;;;;;;;;;;18.19;31.91;101902.75;4997753;28;1011;-44
2022/03/23 10:37:12;;;;;;;;;;;;;;;18.21;31.68;101897.84;4998627;28;819;-47
2022/03/23 10:39:37;;;;;;;;;;;;;;;18.17;31.56;101892.00;4995943;28;881;-45
2022/03/23 10:42:10;;;;;;;;;;;;;;;18.21;31.42;101884.91;4997078;28;718;-45
2022/03/23 10:44:36;;;;;;;;;;;;;;;18.09;31.80;101915.31;4980840;28;1534;-44
2022/03/23 10:47:02;;;;;;;;;;;;;;;18.19;31.37;101886.25;4998472;28;849;-47
2022/03/23 10:49:31;;;;;;;;;;;;;;;18.32;31.49;101894.13;4992655;28;818;-47
2022/03/23 10:52:06;;;;;;;;;;;;;;;18.29;31.37;101900.16;4998557;28;834;-44
2022/03/23 10:54:31;;;;;;;;;;;;;;;18.30;31.29;101890.81;4979095;28;770;-47
2022/03/23 10:56:56;;;;;;;;;;;;;;;18.17;31.42;101883.75;4979893;28;743;-48
2022/03/23 10:59:22;;;;;;;;;;;;;;;18.29;31.16;101878.13;4990498;28;1034;-46
2022/03/23 11:01:55;;;;;;;;;;;;;;;18.33;31.19;101890.28;4998102;28;878;-47
2022/03/23 11:04:21;;;;;;;;;;;;;;;18.32;31.25;101877.59;4993984;28;1914;-49
2022/03/23 11:06:46;;;;;;;;;;;;;;;18.41;31.02;101875.19;4992927;28;854;-46
2022/03/23 11:15:46;;;;;;;;;;;;;;;18.40;30.88;101874.38;4981062;28;1123;-44
2022/03/23 11:18:06;;;;;;;;;;;;;;;18.20;31.11;101857.63;4953155;28;1178;-47
2022/03/23 11:20:41;;;;;;;;;;;;;;;18.27;30.93;101848.09;4976441;28;1200;-47
2022/03/23 11:23:25;;;;;;;;;;;;;;;18.27;30.92;101853.59;4979335;28;1969;-49
2022/03/23 11:25:51;;;;;;;;;;;;;;;18.30;30.90;101855.00;4979277;28;1078;-46
2022/03/23 11:28:17;;;;;;;;;;;;;;;18.36;31.02;101837.44;4979082;28;734;-48
2022/03/23 11:30:43;;;;;;;;;;;;;;;18.21;31.20;101859.31;4978842;28;782;-46
2022/03/23 11:33:12;;;;;;;;;;;;;;;18.26;31.02;101851.09;4997316;28;869;-49
2022/03/23 11:35:40;;;;;;;;;;;;;;;18.17;31.15;101833.38;4997352;28;805;-50
2022/03/23 11:38:06;;;;;;;;;;;;;;;18.19;31.23;101839.44;4997410;28;900;-49
2022/03/23 11:40:31;;;;;;;;;;;;;;;18.29;30.84;101845.06;4997740;28;786;-49
2022/03/23 11:42:57;;;;;;;;;;;;;;;18.26;30.73;101840.91;4979720;28;1906;-48
2022/03/23 11:45:23;;;;;;;;;;;;;;;18.19;31.14;101833.94;4978413;28;935;-44
2022/03/23 11:47:53;;;;;;;;;;;;;;;18.27;30.76;101842.59;4991081;28;1077;-48
2022/03/23 11:50:25;;;;;;;;;;;;;;;18.30;30.85;101831.03;4961463;28;772;-46
2022/03/23 11:52:56;;;;;;;;;;;;;;;18.28;30.66;101837.91;4995097;28;1029;-47
2022/03/23 11:55:38;;;;;;;;;;;;;;;18.43;30.41;101829.78;4972603;28;842;-49
2022/03/23 11:58:04;;;;;;;;;;;;;;;18.35;30.50;101833.00;4982330;28;915;-46
2022/03/23 12:00:36;;;;;;;;;;;;;;;18.31;30.51;101837.38;4978505;28;790;-50
2022/03/23 12:03:02;;;;;;;;;;;;;;;18.24;30.60;101828.50;4977840;28;1902;-49
2022/03/23 12:05:29;;;;;;;;;;;;;;;18.23;30.82;101829.56;4978346;28;806;-48
2022/03/23 12:07:55;;;;;;;;;;;;;;;18.18;30.78;101835.03;4978092;28;854;-49
2022/03/23 12:10:21;;;;;;;;;;;;;;;18.19;31.08;101828.44;4962511;28;793;-50
2022/03/23 12:12:46;;;;;;;;;;;;;;;18.08;30.89;101813.75;4996000;28;1045;-51
2022/03/23 12:15:23;;;;;;;;;;;;;;;18.22;30.88;101820.50;4972815;28;1089;-49
2022/03/23 12:17:58;;;;;;;;;;;;;;;18.20;30.64;101813.59;4978235;28;838;-48
2022/03/23 12:20:34;;;;;;;;;;;;;;;18.21;30.79;101823.50;4978171;28;1017;-50
2022/03/23 12:23:02;;;;;;;;;;;;;;;18.21;30.97;101831.78;4977134;28;1958;-52
2022/03/23 12:25:28;;;;;;;;;;;;;;;18.15;31.11;101822.63;4960809;28;1260;-50
2022/03/23 12:28:12;;;;;;;;;;;;;;;18.17;30.72;101825.13;4977891;28;900;-48
2022/03/23 12:30:38;;;;;;;;;;;;;;;18.23;30.63;101818.56;4978265;28;779;-49
2022/03/23 12:33:12;;;;;;;;;;;;;;;18.12;30.95;101815.72;4965579;28;904;-49
2022/03/23 12:35:38;;;;;;;;;;;;;;;18.20;30.69;101814.44;4978476;28;906;-51
2022/03/23 12:38:04;;;;;;;;;;;;;;;18.10;30.80;101808.81;4996748;28;905;-51
2022/03/23 12:40:39;;;;;;;;;;;;;;;18.08;30.99;101809.06;4996747;28;882;-51
2022/03/23 12:43:05;;;;;;;;;;;;;;;18.66;29.85;101816.78;4995832;28;1902;-43
2022/03/23 12:45:33;;;;;;;;;;;;;;;18.89;29.57;101818.38;4996712;28;726;-46
2022/03/23 12:48:05;;;;;;;;;;;;;;;19.00;29.33;101802.75;4988953;28;893;-47
2022/03/23 12:58:43;;;;;;;;;;;;;;;18.68;29.84;101822.00;4984329;28;1026;-50
2022/03/23 13:01:09;;;;;;;;;;;;;;;18.18;30.60;101815.78;4961502;28;915;-48
2022/03/23 13:03:38;;;;;;;;;;;;;;;17.94;30.93;101819.63;4994501;28;1914;-46
2022/03/23 13:06:07;;;;;;;;;;;;;;;17.72;31.55;101827.88;4995945;28;885;-49
2022/03/23 13:08:53;;;;;;;;;;;;;;;17.77;31.53;101808.69;4996639;28;850;-47
2022/03/23 13:11:22;;;;;;;;;;;;;;;18.27;30.72;101811.44;4995730;28;943;-50
2022/03/23 13:13:51;;;;;;;;;;;;;;;18.82;29.60;101809.47;4993010;28;950;-48
2022/03/23 13:16:23;;;;;;;;;;;;;;;19.17;28.97;101815.53;4996237;28;811;-48
2022/03/23 13:18:49;;;;;;;;;;;;;;;19.39;28.88;101819.00;4996021;28;932;-50